createdAt,value
2018-02-21T00:02:17.117Z,98477.09
2018-02-21T00:04:44.576Z,98479.66
2018-02-21T00:07:12.159Z,98477.47
2018-02-21T00:09:39.603Z,98483.41
2018-02-21T00:12:07.062Z,98480.02
2018-02-21T00:14:34.527Z,98483.81
2018-02-21T00:17:01.975Z,98483.71
2018-02-21T00:19:29.422Z,98484.51
2018-02-21T00:21:56.891Z,98482.23
2018-02-21T00:24:24.448Z,98476.55
2018-02-21T00:26:51.927Z,98478.56
2018-02-21T00:29:19.400Z,98490.05
2018-02-21T00:31:46.859Z,98483.04
2018-02-21T00:34:14.351Z,98482.09
2018-02-21T00:36:41.816Z,98488.46
2018-02-21T00:39:09.295Z,98489.33
2018-02-21T00:41:36.839Z,98490.98
2018-02-21T00:44:04.317Z,98481.53
2018-02-21T00:46:31.771Z,98484.45
2018-02-21T00:48:59.222Z,98480.91
2018-02-21T00:51:26.667Z,98489.80
2018-02-21T00:53:54.158Z,98494.42
2018-02-21T00:56:21.743Z,98498.19
2018-02-21T00:58:49.187Z,98504.09
2018-02-21T01:01:16.638Z,98501.85
2018-02-21T01:03:44.803Z,98506.94
2018-02-21T01:06:12.260Z,98500.48
2018-02-21T01:08:39.717Z,98506.41
2018-02-21T01:11:07.172Z,98505.97
2018-02-21T01:13:34.628Z,98502.86
2018-02-21T01:16:02.082Z,98504.55
2018-02-21T01:18:29.569Z,98503.30
2018-02-21T01:20:57.030Z,98505.30
2018-02-21T01:23:24.482Z,98504.41
2018-02-21T01:25:51.954Z,98508.73
2018-02-21T01:28:19.409Z,98504.38
2018-02-21T01:30:46.853Z,98511.20
2018-02-21T01:33:14.304Z,98509.87
2018-02-21T01:35:41.737Z,98513.27
2018-02-21T01:38:09.206Z,98505.61
2018-02-21T01:40:36.663Z,98509.45
2018-02-21T01:43:04.114Z,98510.28
2018-02-21T01:45:31.563Z,98512.39
2018-02-21T01:47:59.010Z,98513.69
2018-02-21T01:50:26.489Z,98518.40
2018-02-21T01:52:53.931Z,98522.18
2018-02-21T01:55:21.383Z,98527.33
2018-02-21T01:57:48.847Z,98523.91
2018-02-21T02:00:16.333Z,98524.81
2018-02-21T02:02:43.779Z,98531.30
2018-02-21T02:05:11.231Z,98530.07
2018-02-21T02:07:38.699Z,98531.93
2018-02-21T02:10:06.144Z,98529.64
2018-02-21T02:12:33.591Z,98531.11
2018-02-21T02:15:01.062Z,98536.86
2018-02-21T02:17:28.504Z,98540.00
2018-02-21T02:19:55.968Z,98540.63
2018-02-21T02:22:23.410Z,98527.10
2018-02-21T02:24:50.873Z,98528.78
2018-02-21T02:27:18.335Z,98529.61
2018-02-21T02:29:45.786Z,98526.75
2018-02-21T02:32:13.250Z,98526.41
2018-02-21T02:34:40.738Z,98525.58
2018-02-21T02:37:08.203Z,98520.47
2018-02-21T02:40:07.131Z,98524.50
2018-02-21T02:42:34.579Z,98528.20
2018-02-21T02:45:02.049Z,98535.56
2018-02-21T02:47:29.505Z,98539.05
2018-02-21T02:49:56.962Z,98536.11
2018-02-21T02:52:24.426Z,98535.30
2018-02-21T02:54:51.869Z,98532.38
2018-02-21T02:57:19.330Z,98526.86
2018-02-21T02:59:46.815Z,98523.88
2018-02-21T03:02:14.287Z,98527.73
2018-02-21T03:04:41.734Z,98526.42
2018-02-21T03:07:09.203Z,98522.55
2018-02-21T03:09:36.657Z,98524.31
2018-02-21T03:12:04.107Z,98529.07
2018-02-21T03:14:31.601Z,98538.09
2018-02-21T03:16:59.062Z,98537.71
2018-02-21T03:19:26.532Z,98544.59
2018-02-21T03:21:54.010Z,98542.90
2018-02-21T03:24:21.460Z,98550.63
2018-02-21T03:26:48.939Z,98559.67
2018-02-21T03:29:16.415Z,98557.14
2018-02-21T03:31:44.389Z,98561.42
2018-02-21T03:34:11.868Z,98559.73
2018-02-21T03:36:39.318Z,98563.60
2018-02-21T03:39:06.784Z,98567.46
2018-02-21T03:41:34.235Z,98569.19
2018-02-21T03:44:01.683Z,98560.61
2018-02-21T03:46:29.127Z,98565.34
2018-02-21T03:48:56.586Z,98567.92
2018-02-21T03:51:24.101Z,98572.64
2018-02-21T03:53:51.601Z,98573.91
2018-02-21T03:56:19.079Z,98582.01
2018-02-21T03:58:46.549Z,98572.53
2018-02-21T04:01:14.011Z,98571.73
2018-02-21T04:03:41.476Z,98574.28
2018-02-21T04:06:08.923Z,98575.13
2018-02-21T04:08:36.373Z,98578.09
2018-02-21T04:11:03.829Z,98577.24
2018-02-21T04:13:31.287Z,98576.31
2018-02-21T04:15:58.754Z,98576.33
2018-02-21T04:18:26.233Z,98581.52
2018-02-21T04:20:53.682Z,98577.20
2018-02-21T04:23:21.146Z,98582.42
2018-02-21T04:25:48.620Z,98587.56
2018-02-21T04:28:16.069Z,98584.63
2018-02-21T04:30:43.531Z,98586.77
2018-02-21T04:33:11.058Z,98583.80
2018-02-21T04:35:38.511Z,98583.38
2018-02-21T04:38:05.970Z,98584.70
2018-02-21T04:40:33.452Z,98587.27
2018-02-21T04:43:00.952Z,98588.12
2018-02-21T04:45:28.410Z,98588.63
2018-02-21T04:47:55.868Z,98588.55
2018-02-21T04:50:24.161Z,98589.05
2018-02-21T04:52:51.615Z,98583.08
2018-02-21T04:55:21.462Z,98585.59
2018-02-21T04:57:54.300Z,98587.78
2018-02-21T05:00:32.601Z,98587.83
2018-02-21T05:03:00.047Z,98583.56
2018-02-21T05:05:27.508Z,98581.86
2018-02-21T05:07:54.995Z,98578.42
2018-02-21T05:10:22.448Z,98574.14
2018-02-21T05:12:49.898Z,98574.55
2018-02-21T05:15:17.344Z,98568.11
2018-02-21T05:17:44.818Z,98574.19
2018-02-21T05:20:12.250Z,98572.39
2018-02-21T05:22:39.687Z,98576.73
2018-02-21T05:25:07.171Z,98571.59
2018-02-21T05:27:34.616Z,98573.32
2018-02-21T05:30:02.094Z,98579.33
2018-02-21T05:32:29.549Z,98585.73
2018-02-21T05:34:57.024Z,98577.58
2018-02-21T05:37:24.465Z,98580.58
2018-02-21T05:39:51.932Z,98580.16
2018-02-21T05:42:19.401Z,98574.19
2018-02-21T05:44:46.856Z,98573.73
2018-02-21T05:47:14.309Z,98574.23
2018-02-21T05:49:41.767Z,98575.07
2018-02-21T05:52:09.237Z,98582.38
2018-02-21T05:54:36.911Z,98577.19
2018-02-21T05:57:04.370Z,98581.50
2018-02-21T05:59:31.868Z,98581.05
2018-02-21T06:02:00.326Z,98590.03
2018-02-21T06:04:27.798Z,98590.88
2018-02-21T06:06:55.235Z,98584.05
2018-02-21T06:09:22.950Z,98601.63
2018-02-21T06:11:50.406Z,98594.40
2018-02-21T06:14:17.892Z,98599.91
2018-02-21T06:16:45.352Z,98591.78
2018-02-21T06:19:12.946Z,98596.15
2018-02-21T06:21:40.419Z,98590.55
2018-02-21T06:24:07.886Z,98593.96
2018-02-21T06:26:35.331Z,98593.57
2018-02-21T06:29:02.806Z,98597.84
2018-02-21T06:31:30.283Z,98593.58
2018-02-21T06:33:57.800Z,98594.41
2018-02-21T06:36:25.262Z,98593.14
2018-02-21T06:38:52.734Z,98580.69
2018-02-21T06:41:20.197Z,98581.13
2018-02-21T06:43:47.726Z,98580.70
2018-02-21T06:46:15.130Z,98578.96
2018-02-21T06:48:42.612Z,98576.87
2018-02-21T06:51:10.108Z,98574.28
2018-02-21T06:53:37.620Z,98573.00
2018-02-21T06:56:05.087Z,98572.97
2018-02-21T06:58:32.538Z,98574.70
2018-02-21T07:00:59.992Z,98567.41
2018-02-21T07:03:27.444Z,98569.59
2018-02-21T07:05:54.915Z,98571.27
2018-02-21T07:08:22.408Z,98568.29
2018-02-21T07:10:49.858Z,98568.34
2018-02-21T07:13:17.326Z,98572.17
2018-02-21T07:15:44.776Z,98575.20
2018-02-21T07:18:12.235Z,98577.77
2018-02-21T07:20:39.688Z,98575.16
2018-02-21T07:23:07.175Z,98572.16
2018-02-21T07:25:34.614Z,98579.45
2018-02-21T07:28:02.070Z,98580.33
2018-02-21T07:30:29.639Z,98587.61
2018-02-21T07:32:57.106Z,98586.33
2018-02-21T07:35:24.559Z,98581.97
2018-02-21T07:37:52.054Z,98580.27
2018-02-21T07:40:19.519Z,98580.25
2018-02-21T07:42:47.179Z,98582.47
2018-02-21T07:45:14.643Z,98584.20
2018-02-21T07:47:42.113Z,98584.22
2018-02-21T07:50:09.631Z,98583.82
2018-02-21T07:52:38.370Z,98578.26
2018-02-21T07:55:05.822Z,98579.09
2018-02-21T07:57:33.297Z,98578.64
2018-02-21T08:00:00.760Z,98579.14
2018-02-21T08:02:28.245Z,98580.45
2018-02-21T08:04:55.731Z,98577.85
2018-02-21T08:07:23.210Z,98589.48
2018-02-21T08:09:50.671Z,98580.88
2018-02-21T08:12:18.132Z,98586.03
2018-02-21T08:14:45.595Z,98584.33
2018-02-21T08:17:13.047Z,98584.76
2018-02-21T08:19:40.849Z,98591.62
2018-02-21T08:22:08.380Z,98590.30
2018-02-21T08:24:36.354Z,98588.99
2018-02-21T08:27:03.946Z,98590.22
2018-02-21T08:29:31.407Z,98584.97
2018-02-21T08:31:59.291Z,98584.67
2018-02-21T08:34:26.813Z,98590.73
2018-02-21T08:36:56.271Z,98589.88
2018-02-21T08:39:23.842Z,98592.48
2018-02-21T08:41:51.488Z,98593.78
2018-02-21T08:44:18.938Z,98591.62
2018-02-21T08:46:46.416Z,98593.31
2018-02-21T08:49:13.878Z,98592.81
2018-02-21T08:51:41.686Z,98596.67
2018-02-21T08:54:09.244Z,98595.34
2018-02-21T08:56:36.776Z,98594.48
2018-02-21T08:59:04.255Z,98591.05
2018-02-21T09:01:31.695Z,98594.97
2018-02-21T09:03:59.150Z,98598.42
2018-02-21T09:06:26.763Z,98603.53
2018-02-21T09:08:54.236Z,98604.36
2018-02-21T09:11:21.715Z,98607.38
2018-02-21T09:13:49.203Z,98610.00
2018-02-21T09:16:16.651Z,98604.77
2018-02-21T09:18:44.139Z,98606.03
2018-02-21T09:21:11.649Z,98609.09
2018-02-21T09:23:39.108Z,98609.92
2018-02-21T09:26:06.566Z,98615.02
2018-02-21T09:28:34.030Z,98615.26
2018-02-21T09:31:01.513Z,98614.19
2018-02-21T09:33:28.976Z,98612.72
2018-02-21T09:35:56.442Z,98616.12
2018-02-21T09:38:23.917Z,98607.61
2018-02-21T09:40:51.379Z,98610.50
2018-02-21T09:43:18.854Z,98611.23
2018-02-21T09:45:46.312Z,98608.94
2018-02-21T09:48:13.810Z,98614.72
2018-02-21T09:50:41.305Z,98614.65
2018-02-21T09:53:08.765Z,98619.75
2018-02-21T09:55:36.222Z,98615.86
2018-02-21T09:58:03.666Z,98612.94
2018-02-21T10:00:31.126Z,98612.54
2018-02-21T10:02:58.576Z,98612.98
2018-02-21T10:05:26.035Z,98614.28
2018-02-21T10:07:53.511Z,98610.73
2018-02-21T10:10:20.974Z,98614.80
2018-02-21T10:12:48.438Z,98613.75
2018-02-21T10:15:15.882Z,98610.29
2018-02-21T10:17:43.362Z,98613.05
2018-02-21T10:20:10.811Z,98610.45
2018-02-21T10:22:38.252Z,98616.24
2018-02-21T10:25:05.713Z,98611.89
2018-02-21T10:27:33.162Z,98612.42
2018-02-21T10:30:00.618Z,98616.86
2018-02-21T10:32:28.064Z,98616.30
2018-02-21T10:34:55.526Z,98619.63
2018-02-21T10:37:22.973Z,98614.52
2018-02-21T10:39:50.428Z,98612.82
2018-02-21T10:42:17.877Z,98599.57
2018-02-21T10:44:45.323Z,98598.80
2018-02-21T10:47:12.783Z,98592.48
2018-02-21T10:49:40.238Z,98594.62
2018-02-21T10:52:07.689Z,98592.79
2018-02-21T10:54:35.149Z,98599.80
2018-02-21T10:57:02.630Z,98600.30
2018-02-21T10:59:30.112Z,98595.23
2018-02-21T11:01:57.578Z,98595.15
2018-02-21T11:04:25.026Z,98593.33
2018-02-21T11:06:52.486Z,98598.45
2018-02-21T11:09:19.941Z,98597.35
2018-02-21T11:11:47.394Z,98598.37
2018-02-21T11:14:14.888Z,98608.66
2018-02-21T11:16:42.364Z,98606.17
2018-02-21T11:19:09.832Z,98600.19
2018-02-21T11:21:37.324Z,98601.73
2018-02-21T11:24:05.385Z,98596.77
2018-02-21T11:26:32.846Z,98594.70
2018-02-21T11:29:00.310Z,98592.41
2018-02-21T11:31:27.767Z,98591.47
2018-02-21T11:33:55.221Z,98590.80
2018-02-21T11:36:22.675Z,98594.22
2018-02-21T11:38:50.127Z,98595.03
2018-02-21T11:41:17.603Z,98594.57
2018-02-21T11:43:45.048Z,98585.06
2018-02-21T11:46:12.497Z,98581.68
2018-02-21T11:48:39.974Z,98577.75
2018-02-21T11:51:07.451Z,98581.38
2018-02-21T11:53:34.885Z,98579.02
2018-02-21T11:56:02.364Z,98576.66
2018-02-21T11:58:29.848Z,98573.06
2018-02-21T12:00:57.302Z,98567.48
2018-02-21T12:03:24.755Z,98570.80
2018-02-21T12:05:52.238Z,98556.35
2018-02-21T12:08:19.704Z,98550.69
2018-02-21T12:10:47.147Z,98548.52
2018-02-21T12:13:15.421Z,98546.42
2018-02-21T12:15:42.891Z,98543.79
2018-02-21T12:18:10.395Z,98542.98
2018-02-21T12:20:37.842Z,98545.73
2018-02-21T12:23:05.348Z,98536.30
2018-02-21T12:25:32.824Z,98532.56
2018-02-21T12:28:00.450Z,98533.81
2018-02-21T12:30:27.942Z,98531.72
2018-02-21T12:32:56.180Z,98524.36
2018-02-21T12:35:23.657Z,98529.36
2018-02-21T12:37:51.134Z,98517.24
2018-02-21T12:40:24.202Z,98517.87
2018-02-21T12:42:51.644Z,98505.19
2018-02-21T12:45:19.707Z,98505.02
2018-02-21T12:47:47.224Z,98500.33
2018-02-21T12:50:14.787Z,98500.01
2018-02-21T12:52:42.267Z,98486.13
2018-02-21T12:55:21.019Z,98491.27
2018-02-21T12:57:51.223Z,98486.79
2018-02-21T13:00:18.838Z,98491.63
2018-02-21T13:02:46.316Z,98486.91
2018-02-21T13:05:22.493Z,98479.52
2018-02-21T13:07:49.954Z,98474.00
2018-02-21T13:10:17.403Z,98468.08
2018-02-21T13:12:44.847Z,98454.23
2018-02-21T13:15:12.339Z,98458.98
2018-02-21T13:17:39.788Z,98463.08
2018-02-21T13:20:07.242Z,98463.33
2018-02-21T13:22:34.826Z,98461.59
2018-02-21T13:25:02.274Z,98462.68
2018-02-21T13:27:29.728Z,98459.25
2018-02-21T13:29:57.182Z,98458.30
2018-02-21T13:32:24.622Z,98461.84
2018-02-21T13:34:52.141Z,98462.23
2018-02-21T13:37:19.596Z,98458.40
2018-02-21T13:39:47.042Z,98455.25
2018-02-21T13:42:14.593Z,98451.41
2018-02-21T13:44:42.201Z,98453.48
2018-02-21T13:47:09.657Z,98445.98
2018-02-21T13:49:37.102Z,98446.72
2018-02-21T13:52:04.564Z,98444.52
2018-02-21T13:54:32.004Z,98441.22
2018-02-21T13:56:59.466Z,98439.59
2018-02-21T13:59:26.917Z,98431.66
2018-02-21T14:01:54.377Z,98434.62
2018-02-21T14:04:21.834Z,98440.91
2018-02-21T14:06:49.284Z,98432.94
2018-02-21T14:09:16.750Z,98431.08
2018-02-21T14:11:44.206Z,98423.83
2018-02-21T14:17:14.041Z,98429.16
2018-02-21T14:19:41.493Z,98425.91
2018-02-21T14:22:09.139Z,98420.66
2018-02-21T14:24:36.729Z,98423.50
2018-02-21T14:29:56.674Z,98425.61
2018-02-21T14:32:24.160Z,98430.52
2018-02-21T14:34:51.705Z,98422.08
2018-02-21T14:37:19.162Z,98425.86
2018-02-21T14:39:46.616Z,98418.99
2018-02-21T14:42:14.071Z,98413.80
2018-02-21T14:44:41.511Z,98406.09
2018-02-21T14:47:08.965Z,98413.48
2018-02-21T14:49:36.414Z,98411.75
2018-02-21T14:52:03.881Z,98411.30
2018-02-21T14:54:31.330Z,98422.17
2018-02-21T14:56:58.781Z,98410.84
2018-02-21T14:59:26.301Z,98421.77
2018-02-21T15:07:38.645Z,98418.44
2018-02-21T15:10:06.119Z,98431.56
2018-02-21T15:12:33.556Z,98431.42
2018-02-21T15:15:01.004Z,98424.66
2018-02-21T15:17:28.569Z,98420.60
2018-02-21T15:19:56.198Z,98428.72
2018-02-21T15:22:23.694Z,98430.04
2018-02-21T15:24:51.190Z,98424.80
2018-02-21T15:27:18.631Z,98421.70
2018-02-21T15:29:46.094Z,98425.04
2018-02-21T15:32:14.047Z,98426.02
2018-02-21T15:34:41.495Z,98428.70
2018-02-21T15:37:08.958Z,98428.23
2018-02-21T15:39:36.421Z,98440.30
2018-02-21T15:42:03.898Z,98435.87
2018-02-21T15:44:31.350Z,98447.47
2018-02-21T15:46:58.829Z,98443.39
2018-02-21T15:49:26.302Z,98446.66
2018-02-21T15:51:53.744Z,98451.14
2018-02-21T15:54:21.186Z,98460.27
2018-02-21T15:56:48.631Z,98457.33
2018-02-21T15:59:16.089Z,98463.44
2018-02-21T16:01:43.581Z,98469.24
2018-02-21T16:04:11.029Z,98468.89
2018-02-21T16:06:38.488Z,98473.22
2018-02-21T16:09:05.938Z,98483.47
2018-02-21T16:11:33.370Z,98482.02
2018-02-21T16:14:00.900Z,98486.09
2018-02-21T16:16:28.392Z,98479.14
2018-02-21T16:18:55.881Z,98486.08
2018-02-21T16:21:23.350Z,98481.19
2018-02-21T16:23:50.794Z,98481.53
2018-02-21T16:26:18.251Z,98482.33
2018-02-21T16:28:45.714Z,98485.36
2018-02-21T16:31:13.184Z,98491.27
2018-02-21T16:33:40.759Z,98492.38
2018-02-21T16:36:08.206Z,98490.73
2018-02-21T16:38:35.670Z,98489.74
2018-02-21T16:41:03.153Z,98486.80
2018-02-21T16:43:30.609Z,98490.73
2018-02-21T16:45:58.064Z,98488.20
2018-02-21T16:48:25.582Z,98494.86
2018-02-21T16:50:53.081Z,98495.78
2018-02-21T16:53:20.522Z,98496.31
2018-02-21T16:55:47.961Z,98497.23
2018-02-21T16:58:15.421Z,98498.58
2018-02-21T17:00:42.867Z,98496.48
2018-02-21T17:03:10.918Z,98498.67
2018-02-21T17:05:38.361Z,98501.71
2018-02-21T17:08:05.848Z,98503.48
2018-02-21T17:10:33.306Z,98502.19
2018-02-21T17:13:01.705Z,98505.64
2018-02-21T17:15:29.155Z,98496.17
2018-02-21T17:17:56.630Z,98504.38
2018-02-21T17:20:24.138Z,98506.95
2018-02-21T17:22:51.557Z,98505.23
2018-02-21T17:25:19.022Z,98507.38
2018-02-21T17:27:46.500Z,98507.78
2018-02-21T17:30:14.109Z,98506.48
2018-02-21T17:32:42.069Z,98504.77
2018-02-21T17:35:09.698Z,98506.45
2018-02-21T17:37:37.241Z,98515.45
2018-02-21T17:45:50.884Z,98524.41
2018-02-21T17:48:19.562Z,98526.52
2018-02-21T17:50:47.675Z,98529.92
2018-02-21T17:53:16.435Z,98525.61
2018-02-21T17:55:45.582Z,98535.45
2018-02-21T17:58:14.613Z,98534.20
2018-02-21T18:00:43.346Z,98529.93
2018-02-21T18:03:11.860Z,98528.67
2018-02-21T18:05:40.972Z,98529.55
2018-02-21T18:08:09.912Z,98528.28
2018-02-21T18:10:38.353Z,98527.84
2018-02-21T18:13:06.474Z,98524.86
2018-02-21T18:15:35.041Z,98520.55
2018-02-21T18:18:03.666Z,98533.39
2018-02-21T18:20:32.359Z,98529.11
2018-02-21T18:22:59.956Z,98525.24
2018-02-21T18:25:27.420Z,98530.36
2018-02-21T18:27:54.911Z,98532.95
2018-02-21T18:30:22.537Z,98523.92
2018-02-21T18:32:49.973Z,98526.03
2018-02-21T18:35:17.460Z,98528.12
2018-02-21T18:37:44.962Z,98527.23
2018-02-21T18:40:12.418Z,98526.36
2018-02-21T18:42:39.894Z,98523.79
2018-02-21T18:45:07.344Z,98527.17
2018-02-21T18:47:34.858Z,98528.47
2018-02-21T18:50:02.446Z,98535.39
2018-02-21T18:52:29.958Z,98532.34
2018-02-21T18:54:57.705Z,98529.33
2018-02-21T18:57:25.255Z,98534.49
2018-02-21T18:59:52.726Z,98541.78
2018-02-21T19:05:26.983Z,98543.05
2018-02-21T19:07:54.437Z,98547.80
2018-02-21T19:10:21.908Z,98541.73
2018-02-21T19:12:59.662Z,98546.41
2018-02-21T19:18:19.893Z,98542.15
2018-02-21T19:20:47.461Z,98540.41
2018-02-21T19:23:15.087Z,98540.42
2018-02-21T19:25:44.238Z,98544.29
2018-02-21T19:28:12.868Z,98542.15
2018-02-21T19:30:40.594Z,98542.14
2018-02-21T19:33:08.151Z,98546.85
2018-02-21T19:35:36.420Z,98543.41
2018-02-21T19:38:04.241Z,98546.34
2018-02-21T19:40:34.722Z,98545.92
2018-02-21T19:43:03.613Z,98537.77
2018-02-21T19:45:31.111Z,98541.55
2018-02-21T19:47:59.680Z,98530.86
2018-02-21T19:50:28.066Z,98537.30
2018-02-21T19:52:57.092Z,98537.68
2018-02-21T19:55:25.447Z,98538.09
2018-02-21T19:57:54.480Z,98536.77
2018-02-21T20:00:23.386Z,98535.90
2018-02-21T20:02:52.433Z,98543.21
2018-02-21T20:05:21.377Z,98543.16
2018-02-21T20:07:50.163Z,98540.58
2018-02-21T20:10:18.783Z,98546.95
2018-02-21T20:12:47.928Z,98537.52
2018-02-21T20:15:17.057Z,98549.92
2018-02-21T20:17:45.607Z,98549.45
2018-02-21T20:20:14.619Z,98545.16
2018-02-21T20:22:43.857Z,98541.30
2018-02-21T20:25:13.324Z,98543.08
2018-02-21T20:27:42.418Z,98544.70
2018-02-21T20:30:15.696Z,98548.53
2018-02-21T20:32:44.890Z,98540.78
2018-02-21T20:35:13.515Z,98547.59
2018-02-21T20:37:42.496Z,98552.65
2018-02-21T20:40:12.014Z,98553.52
2018-02-21T20:42:40.822Z,98546.17
2018-02-21T20:45:10.216Z,98543.58
2018-02-21T20:47:39.320Z,98543.98
2018-02-21T20:50:23.053Z,98543.59
2018-02-21T20:52:52.401Z,98548.34
2018-02-21T20:55:22.269Z,98549.12
2018-02-21T20:57:51.202Z,98543.12
2018-02-21T21:00:20.437Z,98548.23
2018-02-21T21:02:49.330Z,98547.84
2018-02-21T21:05:18.709Z,98540.48
2018-02-21T21:07:48.685Z,98536.63
2018-02-21T21:10:18.504Z,98540.86
2018-02-21T21:12:48.515Z,98546.86
2018-02-21T21:15:17.268Z,98549.81
2018-02-21T21:17:46.276Z,98544.25
2018-02-21T21:20:16.737Z,98545.97
2018-02-21T21:22:46.024Z,98552.74
2018-02-21T21:25:17.457Z,98550.63
2018-02-21T21:27:46.394Z,98550.97
2018-02-21T21:30:14.918Z,98549.20
2018-02-21T21:32:43.309Z,98547.05
2018-02-21T21:35:11.051Z,98544.90
2018-02-21T21:37:38.513Z,98543.18
2018-02-21T21:40:05.994Z,98542.76
2018-02-21T21:42:33.438Z,98545.28
2018-02-21T21:45:00.890Z,98536.20
2018-02-21T21:47:28.343Z,98530.29
2018-02-21T21:49:55.808Z,98532.33
2018-02-21T21:52:23.310Z,98521.14
2018-02-21T21:54:50.774Z,98528.41
2018-02-21T21:57:18.231Z,98527.58
2018-02-21T21:59:47.172Z,98528.80
2018-02-21T22:02:16.198Z,98520.27
2018-02-21T22:04:45.729Z,98520.66
2018-02-21T22:07:13.682Z,98519.36
2018-02-21T22:09:42.159Z,98521.04
2018-02-21T22:12:12.562Z,98517.19
2018-02-21T22:14:41.348Z,98515.43
2018-02-21T22:17:09.643Z,98514.17
2018-02-21T22:19:37.146Z,98517.97
2018-02-21T22:22:06.423Z,98514.43
2018-02-21T22:24:34.242Z,98513.11
2018-02-21T22:27:07.673Z,98514.75
2018-02-21T22:29:36.793Z,98507.96
2018-02-21T22:32:05.884Z,98505.37
2018-02-21T22:34:34.708Z,98505.76
2018-02-21T22:37:04.101Z,98504.09
2018-02-21T22:39:33.718Z,98502.39
2018-02-21T22:42:02.778Z,98504.08
2018-02-21T22:44:32.162Z,98499.34
2018-02-21T22:47:01.420Z,98503.62
2018-02-21T22:49:30.704Z,98497.98
2018-02-21T22:51:59.511Z,98498.83
2018-02-21T22:54:28.559Z,98501.83
2018-02-21T22:56:57.631Z,98502.64
2018-02-21T22:59:26.874Z,98491.91
2018-02-21T23:01:56.167Z,98497.02
2018-02-21T23:04:24.895Z,98494.02
2018-02-21T23:06:53.728Z,98493.15
2018-02-21T23:09:22.792Z,98493.60
2018-02-21T23:11:51.456Z,98490.64
2018-02-21T23:14:20.513Z,98488.50
2018-02-21T23:16:49.015Z,98495.30
2018-02-21T23:19:19.461Z,98489.73
2018-02-21T23:21:49.062Z,98492.31
2018-02-21T23:24:18.264Z,98487.08
2018-02-21T23:26:47.610Z,98483.77
2018-02-21T23:29:16.919Z,98484.95
2018-02-21T23:31:45.926Z,98491.40
2018-02-21T23:34:15.089Z,98486.62
2018-02-21T23:36:44.372Z,98484.05
2018-02-21T23:39:17.608Z,98477.98
2018-02-21T23:41:46.321Z,98483.87
2018-02-21T23:44:15.351Z,98482.30
2018-02-21T23:46:44.832Z,98484.00
2018-02-21T23:49:14.200Z,98479.23
2018-02-21T23:51:43.524Z,98480.46
2018-02-21T23:54:12.093Z,98482.67
2018-02-21T23:56:41.410Z,98482.22
2018-02-21T23:59:10.188Z,98476.14
